Time;durP1;ratioP1;P1;durP2;ratioP2;P2;SDS_P1;SDS_P2;PMS_P1;PMS_P2;Temp;Humidity;BMP_temperature;BMP_pressure;BME280_temperature;BME280_humidity;BME280_pressure;Samples;Min_cycle;Max_cycle;Signal;HPM_P1;HPM_P2
2022/12/10 00:01:25;;;;;;;;;;;;;;;17.24;75.10;100156.25;7416323;19;1406;-67
2022/12/10 00:03:54;;;;;;;;;;;;;;;17.22;74.73;100152.88;7419493;19;1370;-69
2022/12/10 00:06:24;;;;;;;;;;;;;;;17.17;75.02;100155.09;7418924;19;1397;-70
2022/12/10 00:08:53;;;;;;;;;;;;;;;17.15;75.10;100147.25;7417072;19;1295;-70
2022/12/10 00:11:22;;;;;;;;;;;;;;;17.20;75.39;100145.00;7416918;19;1867;-67
2022/12/10 00:13:53;;;;;;;;;;;;;;;17.14;74.92;100150.91;7414121;19;1072;-70
2022/12/10 00:16:22;;;;;;;;;;;;;;;17.07;74.99;100161.31;7414435;19;1017;-67
2022/12/10 00:18:51;;;;;;;;;;;;;;;17.01;74.97;100155.66;7416543;19;1053;-67
2022/12/10 00:21:21;;;;;;;;;;;;;;;16.98;75.36;100161.28;7414275;19;930;-67
2022/12/10 00:23:49;;;;;;;;;;;;;;;16.97;75.88;100164.91;7414423;19;934;-70
2022/12/10 00:26:18;;;;;;;;;;;;;;;17.74;73.27;100155.28;7418380;19;946;-67
2022/12/10 00:28:48;;;;;;;;;;;;;;;18.50;70.67;100168.66;7414372;19;930;-70
2022/12/10 00:31:19;;;;;;;;;;;;;;;19.03;68.99;100159.97;7413812;19;1857;-67
2022/12/10 00:33:48;;;;;;;;;;;;;;;19.11;68.98;100156.53;7413651;19;1070;-67
2022/12/10 00:36:18;;;;;;;;;;;;;;;19.19;68.55;100155.78;7413667;19;1000;-68
2022/12/10 00:38:47;;;;;;;;;;;;;;;19.36;68.14;100173.72;7413619;19;980;-68
2022/12/10 00:41:16;;;;;;;;;;;;;;;19.47;67.78;100149.34;7405214;19;1016;-70
2022/12/10 00:43:44;;;;;;;;;;;;;;;18.82;69.72;100128.09;7406649;19;963;-68
2022/12/10 00:46:13;;;;;;;;;;;;;;;18.25;71.45;100135.38;7406668;19;986;-67
2022/12/10 00:48:44;;;;;;;;;;;;;;;17.86;72.53;100125.59;7406801;19;952;-70
2022/12/10 00:51:14;;;;;;;;;;;;;;;17.62;73.40;100144.72;7405590;19;1853;-67
2022/12/10 00:53:43;;;;;;;;;;;;;;;17.50;73.69;100154.72;7406605;19;946;-70
2022/12/10 00:56:12;;;;;;;;;;;;;;;17.40;73.09;100148.53;7409430;19;998;-68
2022/12/10 00:58:41;;;;;;;;;;;;;;;17.32;73.92;100124.34;7405910;19;955;-68
2022/12/10 01:01:10;;;;;;;;;;;;;;;17.26;73.46;100122.22;7400181;19;1473;-70
2022/12/10 01:03:38;;;;;;;;;;;;;;;17.23;73.05;100158.09;7410143;19;1048;-67
2022/12/10 01:06:16;;;;;;;;;;;;;;;17.16;74.33;100140.06;7409552;19;1001;-67
2022/12/10 01:08:45;;;;;;;;;;;;;;;17.10;74.06;100131.63;7405461;19;943;-67
2022/12/10 01:11:16;;;;;;;;;;;;;;;17.06;74.11;100134.72;7405303;19;1865;-68
2022/12/10 01:13:45;;;;;;;;;;;;;;;17.03;74.22;100137.66;7405763;19;944;-70
2022/12/10 01:16:14;;;;;;;;;;;;;;;17.01;73.68;100139.63;7405739;19;931;-68
2022/12/10 01:18:43;;;;;;;;;;;;;;;17.02;73.87;100139.50;7404439;19;1017;-67
2022/12/10 01:21:13;;;;;;;;;;;;;;;16.96;74.04;100140.03;7404872;19;1083;-68
2022/12/10 01:23:45;;;;;;;;;;;;;;;16.95;73.71;100134.81;7402997;19;998;-68
2022/12/10 01:26:14;;;;;;;;;;;;;;;16.90;73.87;100135.25;7408615;19;1013;-69
2022/12/10 01:28:43;;;;;;;;;;;;;;;16.88;74.43;100129.19;7405039;19;983;-67
2022/12/10 01:31:12;;;;;;;;;;;;;;;17.19;73.40;100124.63;7405238;19;984;-68
2022/12/10 01:33:41;;;;;;;;;;;;;;;18.11;70.60;100109.06;7403206;19;1850;-67
2022/12/10 01:36:10;;;;;;;;;;;;;;;18.65;69.05;100132.38;7404488;19;1075;-70
2022/12/10 01:38:39;;;;;;;;;;;;;;;19.22;67.36;100120.66;7404585;19;1082;-68
2022/12/10 01:41:11;;;;;;;;;;;;;;;19.52;66.34;100108.69;7404794;19;996;-70
2022/12/10 01:43:54;;;;;;;;;;;;;;;19.50;66.34;100109.81;7402397;19;1392;-70
2022/12/10 01:46:23;;;;;;;;;;;;;;;19.48;66.77;100112.66;7403878;19;1207;-68
2022/12/10 01:48:51;;;;;;;;;;;;;;;19.60;66.25;100102.53;7404030;19;1121;-67
2022/12/10 01:51:20;;;;;;;;;;;;;;;19.53;66.16;100088.06;7403387;19;1067;-70
2022/12/10 01:53:49;;;;;;;;;;;;;;;18.85;68.60;100086.75;7402485;19;1851;-70
2022/12/10 01:56:21;;;;;;;;;;;;;;;18.23;70.31;100092.69;7407601;19;1002;-68
2022/12/10 01:58:51;;;;;;;;;;;;;;;17.85;71.83;100091.81;7404534;19;1005;-68
2022/12/10 02:01:24;;;;;;;;;;;;;;;17.63;72.13;100097.47;7403912;19;1375;-70
2022/12/10 02:04:00;;;;;;;;;;;;;;;17.53;72.38;100075.22;7403772;19;981;-67
2022/12/10 02:06:36;;;;;;;;;;;;;;;17.42;72.29;100089.59;7401832;19;980;-70
2022/12/10 02:09:09;;;;;;;;;;;;;;;17.33;72.82;100085.94;7403623;19;1231;-67
2022/12/10 02:11:44;;;;;;;;;;;;;;;17.27;72.66;100092.69;7403463;19;1854;-70
2022/12/10 02:14:15;;;;;;;;;;;;;;;17.23;73.08;100106.47;7403373;19;964;-67
2022/12/10 02:16:47;;;;;;;;;;;;;;;17.17;72.82;100102.53;7403744;19;951;-70
2022/12/10 02:19:18;;;;;;;;;;;;;;;17.15;72.69;100119.66;7403816;19;970;-70
2022/12/10 02:21:49;;;;;;;;;;;;;;;17.11;73.14;100111.13;7402592;19;978;-70
2022/12/10 02:24:19;;;;;;;;;;;;;;;17.12;73.38;100125.31;7403585;19;1061;-67
2022/12/10 02:26:55;;;;;;;;;;;;;;;17.04;73.08;100123.31;7401671;19;1402;-70
2022/12/10 02:29:27;;;;;;;;;;;;;;;17.01;72.84;100112.91;7403357;19;1145;-67
2022/12/10 02:31:58;;;;;;;;;;;;;;;16.96;72.77;100110.66;7402538;19;1857;-70
2022/12/10 02:34:28;;;;;;;;;;;;;;;16.94;72.85;100125.97;7403280;19;938;-70
2022/12/10 02:36:57;;;;;;;;;;;;;;;16.94;73.06;100128.66;7402675;19;1000;-68
2022/12/10 02:39:27;;;;;;;;;;;;;;;16.89;72.57;100139.75;7403283;19;1001;-70
2022/12/10 02:41:57;;;;;;;;;;;;;;;16.89;72.81;100152.25;7403185;19;974;-70
2022/12/10 02:44:29;;;;;;;;;;;;;;;16.90;73.67;100145.94;7402757;19;982;-67
2022/12/10 02:46:59;;;;;;;;;;;;;;;17.93;70.31;100138.41;7403268;19;1126;-70
2022/12/10 02:49:29;;;;;;;;;;;;;;;18.72;67.55;100129.09;7405490;19;1103;-70
2022/12/10 02:51:57;;;;;;;;;;;;;;;19.17;66.32;100145.19;7401857;19;1846;-68
2022/12/10 02:54:40;;;;;;;;;;;;;;;19.30;65.85;100141.28;7401575;19;1051;-70
2022/12/10 02:57:15;;;;;;;;;;;;;;;19.50;65.37;100140.16;7402220;19;942;-68
2022/12/10 02:59:54;;;;;;;;;;;;;;;19.72;64.91;100132.69;7400300;19;1532;-71
2022/12/10 03:02:26;;;;;;;;;;;;;;;19.55;65.40;100135.16;7398750;19;1276;-68
2022/12/10 03:04:56;;;;;;;;;;;;;;;18.74;67.67;100137.81;7400976;19;1062;-67
2022/12/10 03:07:28;;;;;;;;;;;;;;;18.16;69.69;100162.97;7399900;19;1801;-67
2022/12/10 03:09:59;;;;;;;;;;;;;;;17.78;70.92;100141.47;7401831;19;1079;-68
2022/12/10 03:12:30;;;;;;;;;;;;;;;17.55;70.82;100138.28;7401487;19;1842;-68
2022/12/10 03:15:03;;;;;;;;;;;;;;;17.42;71.72;100149.22;7401600;19;1067;-67
2022/12/10 03:17:34;;;;;;;;;;;;;;;17.32;71.76;100127.00;7401878;19;1054;-70
2022/12/10 03:20:03;;;;;;;;;;;;;;;17.30;71.85;100134.31;7401902;19;1014;-67
2022/12/10 03:22:32;;;;;;;;;;;;;;;17.25;72.13;100136.59;7401664;19;1149;-69
2022/12/10 03:25:01;;;;;;;;;;;;;;;17.21;72.01;100124.47;7402829;19;1860;-70
2022/12/10 03:27:31;;;;;;;;;;;;;;;17.14;72.09;100118.00;7401339;19;1056;-70
2022/12/10 03:30:03;;;;;;;;;;;;;;;17.10;72.01;100126.28;7401484;19;1001;-67
2022/12/10 03:32:31;;;;;;;;;;;;;;;17.06;72.13;100116.03;7401026;19;1849;-70
2022/12/10 03:35:01;;;;;;;;;;;;;;;17.03;71.94;100113.63;7401142;19;988;-67
2022/12/10 03:37:30;;;;;;;;;;;;;;;17.03;72.29;100106.47;7401148;19;915;-70
2022/12/10 03:39:59;;;;;;;;;;;;;;;16.96;72.06;100099.13;7401475;19;1111;-67
2022/12/10 03:42:27;;;;;;;;;;;;;;;16.94;72.24;100099.28;7400591;19;1068;-70
2022/12/10 03:44:56;;;;;;;;;;;;;;;16.93;72.28;100105.63;7401101;19;1092;-70
2022/12/10 03:47:26;;;;;;;;;;;;;;;16.90;72.31;100095.19;7401234;19;1037;-70
2022/12/10 03:49:55;;;;;;;;;;;;;;;16.88;72.20;100098.00;7401071;19;984;-67
2022/12/10 03:52:23;;;;;;;;;;;;;;;16.86;73.10;100101.78;7398442;19;1832;-70
2022/12/10 03:54:52;;;;;;;;;;;;;;;16.99;72.55;100089.03;7400700;19;1067;-70
2022/12/10 03:57:20;;;;;;;;;;;;;;;18.20;68.62;100092.13;7400839;19;973;-69
2022/12/10 03:59:49;;;;;;;;;;;;;;;18.81;66.88;100096.09;7400345;19;1079;-70
2022/12/10 04:02:17;;;;;;;;;;;;;;;19.14;65.73;100104.44;7399341;19;1364;-68
2022/12/10 04:04:48;;;;;;;;;;;;;;;19.15;66.12;100095.44;7402642;19;1238;-70
2022/12/10 04:07:16;;;;;;;;;;;;;;;19.27;66.29;100102.25;7400965;19;1138;-70
2022/12/10 04:09:45;;;;;;;;;;;;;;;19.34;66.37;100106.00;7398351;19;1009;-70
2022/12/10 04:12:13;;;;;;;;;;;;;;;19.18;66.74;100111.19;7397846;19;1001;-68
2022/12/10 04:17:22;;;;;;;;;;;;;;;17.89;70.44;100111.94;7406652;19;769;-69
2022/12/10 04:19:53;;;;;;;;;;;;;;;17.59;71.59;100096.06;7406270;19;1009;-70
2022/12/10 04:27:49;;;;;;;;;;;;;;;17.20;72.00;100085.38;7402112;19;1227;-69
2022/12/10 04:30:17;;;;;;;;;;;;;;;17.15;72.22;100091.16;7406670;19;954;-68
2022/12/10 04:32:46;;;;;;;;;;;;;;;17.12;72.15;100085.25;7406528;19;1844;-69
2022/12/10 04:35:16;;;;;;;;;;;;;;;17.06;72.13;100086.63;7407192;19;1046;-70
2022/12/10 04:37:45;;;;;;;;;;;;;;;17.03;72.14;100089.56;7406064;19;1004;-69
2022/12/10 04:40:13;;;;;;;;;;;;;;;17.00;72.29;100089.88;7406019;19;988;-68
2022/12/10 04:42:42;;;;;;;;;;;;;;;16.96;72.32;100107.16;7406618;19;988;-69
2022/12/10 04:45:10;;;;;;;;;;;;;;;16.93;72.11;100084.25;7406591;19;1055;-70
2022/12/10 04:47:39;;;;;;;;;;;;;;;16.89;72.74;100089.00;7407021;19;971;-70
2022/12/10 04:50:08;;;;;;;;;;;;;;;16.90;73.05;100108.53;7406092;19;1024;-68
2022/12/10 04:52:39;;;;;;;;;;;;;;;16.84;73.05;100093.06;7403894;19;1842;-70
2022/12/10 04:55:08;;;;;;;;;;;;;;;17.14;72.39;100091.28;7405170;19;1469;-70
2022/12/10 04:57:36;;;;;;;;;;;;;;;18.05;69.67;100075.72;7408982;19;1087;-68
2022/12/10 05:00:05;;;;;;;;;;;;;;;18.65;67.69;100081.47;7404755;19;1075;-69
2022/12/10 05:02:33;;;;;;;;;;;;;;;18.98;66.52;100083.69;7402887;19;1457;-69
2022/12/10 05:05:02;;;;;;;;;;;;;;;19.01;66.58;100078.88;7404526;19;1063;-70
2022/12/10 05:07:30;;;;;;;;;;;;;;;19.15;66.14;100079.34;7404431;19;1091;-69
2022/12/10 05:10:01;;;;;;;;;;;;;;;19.29;65.88;100084.16;7403613;19;1001;-69
2022/12/10 05:12:29;;;;;;;;;;;;;;;18.98;66.57;100084.56;7404497;19;978;-68
2022/12/10 05:14:58;;;;;;;;;;;;;;;18.37;68.71;100066.44;7404786;19;972;-70
2022/12/10 05:17:26;;;;;;;;;;;;;;;17.96;69.99;100084.59;7404858;19;1014;-68
2022/12/10 05:19:54;;;;;;;;;;;;;;;17.60;70.85;100087.88;7403416;19;1000;-68
2022/12/10 05:25:06;;;;;;;;;;;;;;;17.27;71.09;100070.47;7405200;19;702;-70
2022/12/10 05:27:35;;;;;;;;;;;;;;;17.22;71.94;100094.09;7403085;19;935;-70
2022/12/10 05:30:03;;;;;;;;;;;;;;;17.14;72.09;100088.63;7404340;19;931;-68
2022/12/10 05:32:32;;;;;;;;;;;;;;;17.10;71.68;100080.03;7403781;19;996;-68
2022/12/10 05:35:00;;;;;;;;;;;;;;;17.04;71.89;100097.44;7401848;19;1853;-70
2022/12/10 05:37:28;;;;;;;;;;;;;;;17.05;72.63;100092.94;7403350;19;1055;-69
2022/12/10 05:39:57;;;;;;;;;;;;;;;17.68;71.04;100095.19;7403639;19;1088;-70
2022/12/10 05:42:28;;;;;;;;;;;;;;;18.56;68.79;100090.44;7403065;19;993;-70
2022/12/10 05:44:56;;;;;;;;;;;;;;;19.42;66.37;100098.03;7404300;19;1013;-69
2022/12/10 05:47:24;;;;;;;;;;;;;;;19.92;65.29;100093.91;7403223;19;1001;-70
2022/12/10 05:49:53;;;;;;;;;;;;;;;20.14;64.74;100099.75;7403050;19;1075;-70
2022/12/10 05:52:21;;;;;;;;;;;;;;;20.28;64.22;100091.09;7403111;19;1004;-67
2022/12/10 05:54:49;;;;;;;;;;;;;;;20.58;63.94;100105.81;7401340;19;1880;-73
2022/12/10 05:57:18;;;;;;;;;;;;;;;20.84;62.99;100088.81;7405357;19;1103;-69
2022/12/10 05:59:49;;;;;;;;;;;;;;;20.79;62.98;100089.31;7403231;19;1076;-68
2022/12/10 06:02:17;;;;;;;;;;;;;;;20.56;63.94;100091.72;7401637;19;1257;-67
2022/12/10 06:04:45;;;;;;;;;;;;;;;20.19;65.32;100089.34;7402044;19;1072;-73
2022/12/10 06:07:13;;;;;;;;;;;;;;;20.24;65.16;100081.69;7403175;19;944;-68
2022/12/10 06:09:42;;;;;;;;;;;;;;;20.21;65.51;100093.59;7402517;19;1000;-69
2022/12/10 06:12:10;;;;;;;;;;;;;;;20.07;66.21;100086.09;7402401;19;1059;-68
2022/12/10 06:14:38;;;;;;;;;;;;;;;20.12;65.94;100085.66;7401411;19;1853;-68
2022/12/10 06:17:09;;;;;;;;;;;;;;;20.18;65.77;100085.84;7402266;19;992;-75
2022/12/10 06:19:38;;;;;;;;;;;;;;;20.06;66.06;100079.91;7402628;19;936;-67
2022/12/10 06:22:06;;;;;;;;;;;;;;;19.93;66.66;100081.31;7401919;19;1016;-69
2022/12/10 06:24:34;;;;;;;;;;;;;;;19.85;66.87;100088.31;7402758;19;975;-68
2022/12/10 06:27:03;;;;;;;;;;;;;;;19.89;66.80;100093.38;7403121;19;995;-68
2022/12/10 06:29:32;;;;;;;;;;;;;;;19.97;66.45;100096.09;7401664;19;945;-69
2022/12/10 06:32:00;;;;;;;;;;;;;;;19.95;66.31;100107.00;7402219;19;1007;-66
2022/12/10 06:34:31;;;;;;;;;;;;;;;19.85;66.83;100092.84;7400740;19;1838;-63
2022/12/10 06:36:59;;;;;;;;;;;;;;;19.82;67.18;100096.69;7401812;19;996;-66
2022/12/10 06:39:28;;;;;;;;;;;;;;;19.88;66.96;100080.97;7399866;19;991;-62
2022/12/10 06:41:56;;;;;;;;;;;;;;;19.91;66.80;100083.31;7400717;19;959;-64
2022/12/10 06:44:24;;;;;;;;;;;;;;;19.90;66.81;100079.81;7401291;19;1079;-65
2022/12/10 06:46:52;;;;;;;;;;;;;;;19.85;67.11;100058.78;7401241;19;1067;-62
2022/12/10 06:49:21;;;;;;;;;;;;;;;19.91;66.92;100061.84;7401376;19;1033;-64
2022/12/10 06:51:52;;;;;;;;;;;;;;;19.97;66.60;100077.31;7400880;19;1004;-67
2022/12/10 06:54:20;;;;;;;;;;;;;;;19.95;66.73;100044.44;7399463;19;1842;-66
2022/12/10 06:56:49;;;;;;;;;;;;;;;19.90;66.78;100052.16;7400712;19;1078;-78
2022/12/10 06:59:17;;;;;;;;;;;;;;;19.89;67.27;100069.22;7400818;19;1082;-70
2022/12/10 07:01:45;;;;;;;;;;;;;;;19.92;67.43;100060.88;7399976;19;1386;-65
2022/12/10 07:04:14;;;;;;;;;;;;;;;20.12;66.90;100056.94;7401421;19;948;-65
2022/12/10 07:06:42;;;;;;;;;;;;;;;20.05;67.25;100072.00;7400846;19;956;-63
2022/12/10 07:09:13;;;;;;;;;;;;;;;20.27;66.45;100066.09;7400648;19;1067;-63
2022/12/10 07:11:41;;;;;;;;;;;;;;;20.39;66.07;100068.47;7403431;19;1020;-64
2022/12/10 07:14:10;;;;;;;;;;;;;;;20.51;65.94;100056.44;7402671;19;1865;-63
2022/12/10 07:16:38;;;;;;;;;;;;;;;20.58;65.78;100059.31;7403065;19;1278;-62
2022/12/10 07:19:06;;;;;;;;;;;;;;;20.60;65.97;100076.97;7402508;19;1187;-65
2022/12/10 07:21:36;;;;;;;;;;;;;;;20.55;65.90;100055.13;7402512;19;1476;-65
2022/12/10 07:24:06;;;;;;;;;;;;;;;20.60;65.77;100049.28;7402080;19;1293;-69
2022/12/10 07:26:37;;;;;;;;;;;;;;;20.68;65.83;100041.25;7403224;19;1180;-66
2022/12/10 07:29:06;;;;;;;;;;;;;;;20.70;65.99;100041.91;7400984;19;1710;-66
2022/12/10 07:31:35;;;;;;;;;;;;;;;20.56;66.29;100029.94;7403170;19;1627;-69
2022/12/10 07:34:03;;;;;;;;;;;;;;;20.42;66.99;100041.31;7400880;19;1846;-67
2022/12/10 07:36:32;;;;;;;;;;;;;;;20.12;69.30;100048.06;7402756;19;1496;-67
2022/12/10 07:39:00;;;;;;;;;;;;;;;19.50;71.86;100040.94;7399799;19;1497;-62
2022/12/10 07:41:29;;;;;;;;;;;;;;;19.07;72.86;100035.38;7403626;19;1608;-64
2022/12/10 07:44:00;;;;;;;;;;;;;;;18.86;73.69;100035.72;7403044;19;1615;-66
2022/12/10 07:46:30;;;;;;;;;;;;;;;18.81;74.05;100037.16;7401982;19;1526;-67
2022/12/10 07:48:58;;;;;;;;;;;;;;;18.72;73.82;100032.66;7403061;19;1604;-66
2022/12/10 07:51:26;;;;;;;;;;;;;;;18.59;73.97;100031.22;7408184;19;1361;-64
2022/12/10 07:53:55;;;;;;;;;;;;;;;18.61;74.26;100034.56;7406883;19;1846;-64
2022/12/10 07:56:24;;;;;;;;;;;;;;;18.45;74.35;100029.03;7409712;19;1596;-65
2022/12/10 07:58:54;;;;;;;;;;;;;;;18.41;74.12;100012.44;7409908;19;1525;-62
2022/12/10 08:01:26;;;;;;;;;;;;;;;18.37;74.59;100010.22;7409062;19;1511;-64
2022/12/10 08:03:56;;;;;;;;;;;;;;;18.40;74.67;100031.31;7410704;19;1437;-64
2022/12/10 08:06:24;;;;;;;;;;;;;;;18.32;74.43;100024.03;7409898;19;1567;-70
2022/12/10 08:08:53;;;;;;;;;;;;;;;18.29;74.74;100010.97;7409561;19;1608;-65
2022/12/10 08:11:22;;;;;;;;;;;;;;;18.31;73.91;100021.53;7409276;19;1572;-63
2022/12/10 08:13:51;;;;;;;;;;;;;;;18.32;74.73;100013.31;7407785;19;1870;-64
2022/12/10 08:16:22;;;;;;;;;;;;;;;18.32;74.56;100001.78;7405892;19;1805;-66
2022/12/10 08:18:53;;;;;;;;;;;;;;;18.20;74.62;100011.84;7402735;19;1465;-63
2022/12/10 08:21:23;;;;;;;;;;;;;;;18.17;73.89;100021.03;7404394;19;1004;-67
2022/12/10 08:23:51;;;;;;;;;;;;;;;18.29;73.48;100022.50;7404003;19;1038;-68
2022/12/10 08:26:20;;;;;;;;;;;;;;;18.28;73.63;100015.47;7409861;19;922;-66
2022/12/10 08:28:50;;;;;;;;;;;;;;;18.22;73.74;99992.00;7409538;19;1214;-67
2022/12/10 08:31:19;;;;;;;;;;;;;;;18.17;74.15;99991.59;7405283;19;992;-69
2022/12/10 08:33:47;;;;;;;;;;;;;;;18.11;74.15;99994.03;7409692;19;1874;-68
2022/12/10 08:36:19;;;;;;;;;;;;;;;18.11;74.31;99975.28;7405942;19;1071;-69
2022/12/10 08:38:47;;;;;;;;;;;;;;;18.06;74.66;99986.41;7405750;19;927;-64
2022/12/10 08:41:17;;;;;;;;;;;;;;;18.23;75.00;99985.63;7405337;19;1067;-66
2022/12/10 08:43:46;;;;;;;;;;;;;;;18.11;74.37;99962.75;7405670;19;997;-68
2022/12/10 08:46:15;;;;;;;;;;;;;;;18.07;74.43;99970.22;7405994;19;1158;-67
2022/12/10 08:48:43;;;;;;;;;;;;;;;18.01;74.39;99964.63;7407591;19;1200;-65
2022/12/10 08:51:13;;;;;;;;;;;;;;;17.96;74.55;99958.88;7395661;19;1503;-65
2022/12/10 08:53:45;;;;;;;;;;;;;;;17.91;74.65;99945.13;7402262;19;946;-67
2022/12/10 08:56:14;;;;;;;;;;;;;;;17.82;74.75;99933.44;7407415;19;1019;-67
2022/12/10 08:58:42;;;;;;;;;;;;;;;17.85;74.64;99950.06;7403796;19;979;-65
2022/12/10 09:01:11;;;;;;;;;;;;;;;17.83;74.53;99927.97;7402105;19;1372;-65
2022/12/10 09:03:39;;;;;;;;;;;;;;;17.80;74.57;99936.25;7405358;19;1063;-66
2022/12/10 09:06:08;;;;;;;;;;;;;;;17.81;74.70;99940.63;7403463;19;1070;-65
2022/12/10 09:08:37;;;;;;;;;;;;;;;17.84;74.51;99936.81;7404355;19;1004;-65
2022/12/10 09:11:12;;;;;;;;;;;;;;;17.85;74.26;99936.69;7405002;19;1001;-65
2022/12/10 09:13:41;;;;;;;;;;;;;;;17.84;74.12;99921.63;7404631;19;1013;-67
2022/12/10 09:16:09;;;;;;;;;;;;;;;18.18;72.79;99921.00;7403003;19;1829;-65
2022/12/10 09:18:38;;;;;;;;;;;;;;;19.02;70.39;99902.88;7404475;19;998;-66
2022/12/10 09:21:09;;;;;;;;;;;;;;;19.37;69.16;99906.47;7404232;19;939;-66
2022/12/10 09:23:37;;;;;;;;;;;;;;;19.54;68.92;99912.75;7405230;19;1010;-65
2022/12/10 09:26:07;;;;;;;;;;;;;;;19.56;68.78;99906.22;7407557;19;989;-65
2022/12/10 09:28:39;;;;;;;;;;;;;;;19.73;68.09;99899.13;7404259;19;1004;-67
2022/12/10 09:31:08;;;;;;;;;;;;;;;19.83;67.70;99905.19;7403719;19;979;-67
2022/12/10 09:33:37;;;;;;;;;;;;;;;19.85;67.77;99895.13;7404278;19;972;-65
2022/12/10 09:36:06;;;;;;;;;;;;;;;20.05;66.96;99889.50;7401976;19;1861;-65
2022/12/10 09:38:36;;;;;;;;;;;;;;;19.89;67.59;99908.25;7403999;19;918;-67
2022/12/10 09:41:05;;;;;;;;;;;;;;;19.90;67.44;99891.16;7403535;19;1071;-66
2022/12/10 09:43:44;;;;;;;;;;;;;;;19.34;69.36;99902.25;7403201;19;1018;-65
2022/12/10 09:46:20;;;;;;;;;;;;;;;18.94;70.56;99892.09;7403804;19;938;-67
2022/12/10 09:48:55;;;;;;;;;;;;;;;18.67;71.11;99892.03;7403692;19;1208;-67
2022/12/10 09:51:25;;;;;;;;;;;;;;;18.53;71.81;99886.41;7403717;19;1014;-67
2022/12/10 09:53:58;;;;;;;;;;;;;;;18.45;72.08;99887.16;7403083;19;1006;-67
2022/12/10 09:56:29;;;;;;;;;;;;;;;18.42;71.89;99888.31;7404869;19;1840;-67
2022/12/10 09:58:58;;;;;;;;;;;;;;;18.34;72.17;99879.34;7403126;19;1079;-65
2022/12/10 10:01:31;;;;;;;;;;;;;;;18.27;72.24;99869.25;7402138;19;1448;-65
2022/12/10 10:03:59;;;;;;;;;;;;;;;18.25;72.48;99881.94;7402777;19;1068;-67
2022/12/10 10:06:29;;;;;;;;;;;;;;;18.22;72.31;99892.97;7402984;19;1075;-67
2022/12/10 10:08:58;;;;;;;;;;;;;;;18.17;72.39;99881.88;7402602;19;1008;-67
2022/12/10 10:11:29;;;;;;;;;;;;;;;18.11;72.66;99882.47;7403051;19;1141;-67
2022/12/10 10:14:01;;;;;;;;;;;;;;;18.03;72.71;99879.72;7402741;19;1059;-67
2022/12/10 10:16:34;;;;;;;;;;;;;;;18.02;73.06;99878.03;7401014;19;1953;-66
2022/12/10 10:19:04;;;;;;;;;;;;;;;17.98;73.07;99876.66;7402336;19;991;-65
2022/12/10 10:21:35;;;;;;;;;;;;;;;17.91;73.17;99854.19;7403146;19;993;-67
2022/12/10 10:24:04;;;;;;;;;;;;;;;17.88;73.05;99861.50;7401846;19;992;-67
2022/12/10 10:26:32;;;;;;;;;;;;;;;17.88;73.22;99850.78;7406550;19;956;-66
2022/12/10 10:29:02;;;;;;;;;;;;;;;17.92;72.94;99847.81;7402727;19;923;-65
2022/12/10 10:31:35;;;;;;;;;;;;;;;17.84;73.17;99852.09;7401514;19;1052;-67
2022/12/10 10:34:04;;;;;;;;;;;;;;;17.94;72.74;99861.88;7401778;19;1047;-66
2022/12/10 10:36:34;;;;;;;;;;;;;;;18.55;70.75;99847.75;7400195;19;1853;-68
2022/12/10 10:39:11;;;;;;;;;;;;;;;19.19;67.98;99834.16;7400682;19;1044;-65
2022/12/10 10:41:41;;;;;;;;;;;;;;;19.39;67.48;99808.78;7401469;19;938;-65
2022/12/10 10:44:16;;;;;;;;;;;;;;;19.48;66.61;99813.19;7400983;19;1086;-69
2022/12/10 10:46:49;;;;;;;;;;;;;;;19.88;66.33;99810.81;7399462;19;942;-72
2022/12/10 10:49:24;;;;;;;;;;;;;;;20.13;65.87;99784.84;7398751;19;1278;-64
2022/12/10 10:51:53;;;;;;;;;;;;;;;20.09;66.25;99799.59;7398354;19;1053;-62
2022/12/10 10:54:41;;;;;;;;;;;;;;;20.14;66.36;99808.00;7398614;19;1445;-63
2022/12/10 10:57:15;;;;;;;;;;;;;;;20.39;66.09;99806.19;7400456;19;956;-61
2022/12/10 10:59:43;;;;;;;;;;;;;;;20.29;65.78;99810.84;7399263;19;1012;-63
2022/12/10 11:02:22;;;;;;;;;;;;;;;19.96;67.38;99800.09;7398569;19;1489;-65
2022/12/10 11:04:52;;;;;;;;;;;;;;;19.36;69.38;99784.97;7403811;19;1197;-64
2022/12/10 11:07:25;;;;;;;;;;;;;;;19.08;70.71;99795.09;7400217;19;1048;-63
2022/12/10 11:09:54;;;;;;;;;;;;;;;18.85;71.53;99784.06;7400997;19;1235;-63
2022/12/10 11:12:31;;;;;;;;;;;;;;;18.75;72.53;99792.16;7402681;19;1260;-64
2022/12/10 11:14:59;;;;;;;;;;;;;;;18.77;73.37;99792.00;7401171;19;1845;-63
2022/12/10 11:17:30;;;;;;;;;;;;;;;18.75;73.87;99789.50;7402946;19;1174;-62
2022/12/10 11:20:00;;;;;;;;;;;;;;;18.71;73.07;99787.28;7404308;19;1159;-64
2022/12/10 11:22:30;;;;;;;;;;;;;;;18.73;73.79;99774.59;7400929;19;1273;-64
2022/12/10 11:24:58;;;;;;;;;;;;;;;18.72;74.14;99767.53;7402118;19;1296;-65
2022/12/10 11:27:35;;;;;;;;;;;;;;;18.72;73.64;99759.50;7401735;19;1079;-63
2022/12/10 11:30:06;;;;;;;;;;;;;;;18.69;74.06;99742.75;7395495;19;1108;-66
2022/12/10 11:32:52;;;;;;;;;;;;;;;18.76;73.52;99734.06;7400337;19;1071;-71
2022/12/10 11:35:28;;;;;;;;;;;;;;;18.84;73.52;99750.22;7396297;19;2263;-65
2022/12/10 11:38:00;;;;;;;;;;;;;;;18.78;73.64;99756.19;7400282;19;1485;-64
2022/12/10 11:40:39;;;;;;;;;;;;;;;18.70;72.73;99765.00;7400479;19;1778;-64
2022/12/10 11:43:23;;;;;;;;;;;;;;;18.72;72.88;99764.84;7400204;19;1595;-66
2022/12/10 11:45:57;;;;;;;;;;;;;;;18.76;73.09;99769.75;7402014;19;1501;-64
2022/12/10 11:48:33;;;;;;;;;;;;;;;18.82;73.10;99746.88;7397331;19;1655;-69
2022/12/10 11:51:06;;;;;;;;;;;;;;;18.78;73.60;99735.63;7387714;19;1219;-74
2022/12/10 11:53:42;;;;;;;;;;;;;;;18.74;73.55;99738.75;7400487;19;1274;-69
2022/12/10 11:56:14;;;;;;;;;;;;;;;18.76;73.85;99748.34;7388971;19;1850;-66
2022/12/10 11:58:49;;;;;;;;;;;;;;;18.68;73.92;99746.44;7392339;19;1235;-65
2022/12/10 12:01:24;;;;;;;;;;;;;;;18.61;74.03;99745.38;7401388;19;1568;-64
2022/12/10 12:04:03;;;;;;;;;;;;;;;18.55;74.22;99748.69;7402271;19;1524;-65
2022/12/10 12:06:44;;;;;;;;;;;;;;;18.48;74.37;99723.53;7402564;19;1604;-62
2022/12/10 12:09:18;;;;;;;;;;;;;;;18.49;74.47;99744.81;7400704;19;1214;-64
2022/12/10 12:11:55;;;;;;;;;;;;;;;18.50;74.08;99742.97;7401269;19;1528;-66
2022/12/10 12:14:26;;;;;;;;;;;;;;;18.41;74.36;99747.44;7402193;19;1568;-66
2022/12/10 12:17:00;;;;;;;;;;;;;;;18.39;74.66;99757.44;7400147;19;1865;-64
2022/12/10 12:19:34;;;;;;;;;;;;;;;18.36;74.39;99743.53;7401424;19;1263;-67
2022/12/10 12:22:09;;;;;;;;;;;;;;;18.36;74.47;99741.69;7402200;19;1624;-68
2022/12/10 12:24:39;;;;;;;;;;;;;;;18.31;74.69;99749.38;7402651;19;1529;-70
2022/12/10 12:27:11;;;;;;;;;;;;;;;18.33;74.65;99746.53;7401010;19;1555;-62
2022/12/10 12:29:43;;;;;;;;;;;;;;;18.26;74.78;99735.59;7401309;19;1263;-65
2022/12/10 12:32:16;;;;;;;;;;;;;;;18.23;74.80;99720.69;7402438;19;1599;-63
2022/12/10 12:34:47;;;;;;;;;;;;;;;18.25;74.72;99725.91;7401587;19;1283;-63
2022/12/10 12:37:19;;;;;;;;;;;;;;;18.23;75.09;99738.59;7400777;19;1881;-61
2022/12/10 12:39:51;;;;;;;;;;;;;;;18.31;74.51;99713.75;7408683;19;1607;-65
2022/12/10 12:42:21;;;;;;;;;;;;;;;18.37;74.93;99715.78;7407296;19;1520;-67
2022/12/10 12:44:58;;;;;;;;;;;;;;;18.40;74.70;99721.66;7407179;19;1533;-71
2022/12/10 12:47:33;;;;;;;;;;;;;;;18.27;74.74;99719.38;7409461;19;1670;-69
2022/12/10 12:50:04;;;;;;;;;;;;;;;18.22;74.82;99719.03;7408276;19;1683;-61
2022/12/10 12:52:39;;;;;;;;;;;;;;;18.22;74.94;99724.38;7408790;19;1604;-64
2022/12/10 12:55:17;;;;;;;;;;;;;;;18.68;73.52;99708.09;7400738;19;1889;-62
2022/12/10 12:57:49;;;;;;;;;;;;;;;19.41;70.81;99707.56;7404491;19;1517;-66
2022/12/10 13:00:21;;;;;;;;;;;;;;;19.85;69.93;99688.53;7407333;19;1501;-68
2022/12/10 13:03:02;;;;;;;;;;;;;;;20.39;67.97;99697.91;7403411;19;1505;-63
2022/12/10 13:05:32;;;;;;;;;;;;;;;20.83;67.04;99682.22;7406156;19;1380;-62
2022/12/10 13:08:15;;;;;;;;;;;;;;;20.98;66.30;99719.94;7406121;19;1560;-63
2022/12/10 13:10:52;;;;;;;;;;;;;;;21.10;66.42;99716.88;7405300;19;1619;-63
2022/12/10 13:13:26;;;;;;;;;;;;;;;20.71;67.54;99690.81;7406469;19;1568;-64
2022/12/10 13:15:55;;;;;;;;;;;;;;;20.68;67.79;99701.91;7405341;19;1850;-63
2022/12/10 13:18:35;;;;;;;;;;;;;;;20.62;67.97;99693.53;7407091;19;1505;-62
2022/12/10 13:21:28;;;;;;;;;;;;;;;20.51;68.54;99696.53;7408026;19;1288;-62